Time;durP1;ratioP1;P1;durP2;ratioP2;P2;SDS_P1;SDS_P2;PMS_P1;PMS_P2;Temp;Humidity;BMP_temperature;BMP_pressure;BME280_temperature;BME280_humidity;BME280_pressure;Samples;Min_cycle;Max_cycle;Signal;HPM_P1;HPM_P2
2020/12/19 00:02:06;;;;;;;20.38;12.27;;;7.10;91.40;;;;;;4980653;28;20389;-49
2020/12/19 00:04:53;;;;;;;18.92;12.32;;;7.20;91.30;;;;;;4979210;28;20056;-52
2020/12/19 00:07:20;;;;;;;23.98;12.63;;;7.20;91.30;;;;;;4972377;28;20070;-49
2020/12/19 00:09:46;;;;;;;18.70;13.00;;;7.10;91.60;;;;;;4988224;28;20074;-49
2020/12/19 00:12:31;;;;;;;19.67;12.15;;;7.10;91.30;;;;;;4973039;28;20063;-49
2020/12/19 00:14:57;;;;;;;20.85;12.02;;;7.10;91.50;;;;;;4987231;28;20452;-49
2020/12/19 00:17:27;;;;;;;20.73;12.13;;;7.10;91.50;;;;;;4974473;28;20050;-48
2020/12/19 00:19:52;;;;;;;21.10;11.90;;;7.10;91.50;;;;;;4987456;28;20443;-48
2020/12/19 00:22:21;;;;;;;17.60;12.25;;;7.10;91.40;;;;;;4982652;28;20157;-48
2020/12/19 00:24:48;;;;;;;21.15;12.15;;;7.10;91.50;;;;;;4989207;28;20045;-48
2020/12/19 00:27:34;;;;;;;23.88;14.30;;;7.00;91.50;;;;;;4978040;28;20085;-50
2020/12/19 00:30:00;;;;;;;21.17;12.30;;;7.00;91.60;;;;;;4985375;28;20122;-48
2020/12/19 00:32:26;;;;;;;17.58;12.82;;;7.00;91.60;;;;;;4977195;28;20089;-48
2020/12/19 00:34:52;;;;;;;21.63;13.25;;;7.00;91.70;;;;;;4981572;28;20059;-54
2020/12/19 00:37:17;;;;;;;21.65;13.82;;;7.00;91.70;;;;;;4989582;28;20165;-50
2020/12/19 00:39:44;;;;;;;19.90;13.20;;;7.00;91.70;;;;;;4992558;28;20078;-51
2020/12/19 00:42:10;;;;;;;21.83;14.00;;;7.00;91.60;;;;;;4990192;28;20054;-51
2020/12/19 00:44:35;;;;;;;19.60;12.85;;;7.00;91.60;;;;;;4992184;28;20046;-51
2020/12/19 00:47:22;;;;;;;19.05;12.60;;;7.10;91.60;;;;;;4975220;28;20062;-50
2020/12/19 00:50:09;;;;;;;21.13;13.45;;;7.10;91.60;;;;;;4982945;28;20050;-51
2020/12/19 00:52:37;;;;;;;19.75;13.07;;;7.10;91.60;;;;;;4991402;28;20045;-50
2020/12/19 00:55:25;;;;;;;23.42;14.43;;;7.00;91.60;;;;;;4991184;28;20108;-51
2020/12/19 00:57:50;;;;;;;24.35;14.38;;;7.00;91.60;;;;;;4974462;28;20066;-48
2020/12/19 01:00:17;;;;;;;22.85;13.77;;;7.00;91.70;;;;;;4981846;28;20563;-51
2020/12/19 01:02:44;;;;;;;22.92;14.13;;;7.10;91.70;;;;;;5000188;28;20128;-51
2020/12/19 01:05:10;;;;;;;21.77;14.18;;;7.00;91.70;;;;;;4981309;28;20062;-54
2020/12/19 01:07:37;;;;;;;23.25;14.57;;;7.00;91.70;;;;;;4991296;28;20045;-51
2020/12/19 01:10:07;;;;;;;21.58;13.70;;;7.10;91.60;;;;;;4979750;28;20065;-54
2020/12/19 01:12:33;;;;;;;22.52;14.20;;;7.00;91.70;;;;;;4977955;28;20375;-51
2020/12/19 01:14:59;;;;;;;23.25;14.30;;;7.10;91.70;;;;;;4977664;28;20077;-53
2020/12/19 01:17:45;;;;;;;21.30;14.57;;;7.10;91.70;;;;;;4990576;28;20042;-51
2020/12/19 01:20:14;;;;;;;20.75;13.88;;;7.10;91.70;;;;;;4985832;28;20507;-50
2020/12/19 01:22:40;;;;;;;22.30;14.27;;;7.10;91.70;;;;;;4970752;28;20126;-52
2020/12/19 01:25:06;;;;;;;22.73;14.38;;;7.10;91.80;;;;;;4977477;28;20462;-51
2020/12/19 01:27:33;;;;;;;25.25;15.15;;;7.10;91.80;;;;;;4983301;28;20085;-49
2020/12/19 01:29:59;;;;;;;22.35;14.55;;;7.10;91.60;;;;;;4982750;28;20221;-49
2020/12/19 01:32:45;;;;;;;24.48;15.20;;;7.10;91.60;;;;;;4974838;28;20034;-51
2020/12/19 01:35:11;;;;;;;26.25;14.98;;;7.20;91.60;;;;;;4990203;28;20149;-51
2020/12/19 01:37:57;;;;;;;23.33;14.93;;;7.10;91.70;;;;;;4997126;28;20069;-50
2020/12/19 01:40:50;;;;;;;28.05;15.35;;;7.10;91.60;;;;;;4983279;28;20122;-52
2020/12/19 01:43:16;;;;;;;23.27;14.82;;;7.10;91.80;;;;;;4980629;28;20048;-48
2020/12/19 01:45:42;;;;;;;22.30;14.65;;;7.00;91.80;;;;;;4981987;28;20042;-49
2020/12/19 01:48:22;;;;;;;26.48;15.07;;;7.00;91.80;;;;;;4987028;28;20070;-52
2020/12/19 01:51:07;;;;;;;21.10;14.35;;;7.00;91.80;;;;;;4996923;28;20039;-50
2020/12/19 01:53:53;;;;;;;25.63;14.48;;;7.00;91.90;;;;;;4997607;28;20384;-49
2020/12/19 01:56:36;;;;;;;23.92;14.40;;;6.90;91.90;;;;;;4998555;28;20506;-50
2020/12/19 01:59:02;;;;;;;23.83;15.00;;;7.00;91.90;;;;;;4998173;28;20056;-51
2020/12/19 02:01:29;;;;;;;22.80;15.00;;;6.90;92.00;;;;;;4977336;28;20567;-51
2020/12/19 02:03:56;;;;;;;21.45;14.20;;;6.90;92.10;;;;;;4973336;28;20518;-48
2020/12/19 02:06:27;;;;;;;24.65;15.45;;;6.90;92.00;;;;;;4996747;28;20070;-50
2020/12/19 02:08:54;;;;;;;25.65;15.82;;;6.90;92.00;;;;;;4988025;28;20514;-50
2020/12/19 02:11:45;;;;;;;23.25;15.00;;;6.90;92.00;;;;;;4978730;28;20051;-49
2020/12/19 02:14:12;;;;;;;22.25;15.10;;;6.90;92.00;;;;;;4991537;28;20065;-48
2020/12/19 02:16:38;;;;;;;23.63;15.48;;;6.90;92.10;;;;;;4984236;28;20038;-49
2020/12/19 02:19:14;;;;;;;26.30;15.77;;;6.90;92.10;;;;;;4998584;28;20053;-48
2020/12/19 02:21:43;;;;;;;25.85;15.30;;;6.90;92.10;;;;;;4977856;28;20452;-49
2020/12/19 02:24:09;;;;;;;26.42;16.33;;;6.90;92.00;;;;;;4989027;28;20042;-51
2020/12/19 02:26:58;;;;;;;22.77;14.68;;;6.90;92.00;;;;;;4993319;28;20116;-48
2020/12/19 02:29:27;;;;;;;24.33;15.82;;;6.90;92.20;;;;;;4981155;28;20057;-48
2020/12/19 02:31:55;;;;;;;25.20;15.88;;;6.80;92.20;;;;;;4981482;28;20046;-49
2020/12/19 02:34:22;;;;;;;25.23;15.02;;;6.80;92.20;;;;;;4987526;28;20491;-49
2020/12/19 02:36:48;;;;;;;26.35;15.73;;;6.80;92.50;;;;;;4996125;28;20042;-49
2020/12/19 02:39:13;;;;;;;24.63;15.77;;;6.80;92.30;;;;;;4997807;28;20050;-51
2020/12/19 02:41:44;;;;;;;23.48;15.25;;;6.80;92.40;;;;;;4981522;28;20043;-50
2020/12/19 02:44:30;;;;;;;26.45;15.95;;;6.80;92.40;;;;;;4987171;28;20046;-51
2020/12/19 02:46:56;;;;;;;24.02;15.98;;;6.70;92.50;;;;;;4995915;28;20042;-49
2020/12/19 02:49:23;;;;;;;25.88;15.95;;;6.80;92.50;;;;;;4995255;28;20085;-48
2020/12/19 02:51:49;;;;;;;23.30;15.73;;;6.80;92.50;;;;;;4993479;28;20440;-48
2020/12/19 02:54:16;;;;;;;27.17;16.52;;;6.80;92.50;;;;;;4994546;28;20038;-51
2020/12/19 02:57:02;;;;;;;25.00;15.43;;;6.80;92.50;;;;;;4968888;28;20422;-48
2020/12/19 02:59:28;;;;;;;24.17;15.57;;;6.80;92.50;;;;;;4994280;28;20038;-52
2020/12/19 03:02:15;;;;;;;25.02;15.32;;;6.80;92.50;;;;;;4993606;28;20463;-50
2020/12/19 03:04:41;;;;;;;27.88;16.75;;;6.80;92.60;;;;;;4994086;28;20066;-48
2020/12/19 03:07:07;;;;;;;24.58;15.88;;;6.80;92.60;;;;;;5006355;28;20041;-50
2020/12/19 03:09:35;;;;;;;26.08;16.10;;;6.80;92.60;;;;;;4982746;28;20126;-51
2020/12/19 03:12:21;;;;;;;27.33;15.77;;;6.80;92.50;;;;;;4986387;28;20114;-54
2020/12/19 03:14:47;;;;;;;24.67;15.40;;;6.80;92.60;;;;;;4988498;28;20050;-50
2020/12/19 03:17:13;;;;;;;24.40;15.82;;;6.90;92.50;;;;;;4994432;28;20046;-51
2020/12/19 03:19:39;;;;;;;24.45;15.57;;;6.90;92.40;;;;;;5009125;28;20460;-50
2020/12/19 03:22:25;;;;;;;27.33;16.92;;;6.90;92.40;;;;;;4987082;28;20053;-51
2020/12/19 03:25:11;;;;;;;23.77;15.98;;;6.90;92.30;;;;;;4992517;28;20050;-49
2020/12/19 03:27:58;;;;;;;25.88;16.42;;;6.80;92.40;;;;;;4963895;28;20098;-50
2020/12/19 03:30:24;;;;;;;28.83;16.77;;;6.80;92.40;;;;;;5004544;28;20050;-54
2020/12/19 03:32:53;;;;;;;25.83;15.65;;;6.90;92.40;;;;;;4993539;28;20046;-50
2020/12/19 03:35:40;;;;;;;27.90;17.08;;;6.90;92.40;;;;;;4979470;28;20452;-51
2020/12/19 03:38:08;;;;;;;25.40;15.25;;;6.90;92.40;;;;;;4995134;28;20125;-48
2020/12/19 03:40:35;;;;;;;25.77;15.80;;;6.90;92.40;;;;;;4992130;28;20125;-49
2020/12/19 03:43:00;;;;;;;27.48;16.60;;;6.90;92.30;;;;;;4993847;28;20112;-52
2020/12/19 03:45:26;;;;;;;22.92;15.15;;;6.80;92.40;;;;;;4985750;28;20038;-52
2020/12/19 03:47:52;;;;;;;27.77;16.42;;;6.80;92.40;;;;;;4987046;28;20121;-51
2020/12/19 03:50:18;;;;;;;23.17;15.43;;;6.90;92.50;;;;;;4977764;28;20038;-52
2020/12/19 03:52:43;;;;;;;24.95;15.82;;;6.80;92.40;;;;;;4993647;28;20042;-50
2020/12/19 03:55:11;;;;;;;25.40;16.15;;;6.80;92.40;;;;;;4986576;28;20042;-49
2020/12/19 03:57:38;;;;;;;27.17;15.68;;;6.90;92.40;;;;;;4975139;28;20684;-48
2020/12/19 04:00:08;;;;;;;31.02;17.25;;;6.90;92.40;;;;;;4976179;28;20046;-49
2020/12/19 04:02:36;;;;;;;27.08;17.08;;;6.80;92.30;;;;;;5002174;28;20074;-49
2020/12/19 04:05:08;;;;;;;25.02;16.17;;;6.80;92.40;;;;;;4964914;28;20495;-49
2020/12/19 04:07:34;;;;;;;26.67;17.45;;;6.80;92.40;;;;;;4982891;28;20046;-50
2020/12/19 04:10:01;;;;;;;27.67;17.77;;;6.80;92.70;;;;;;4983551;28;20102;-48
2020/12/19 04:12:27;;;;;;;26.33;16.80;;;6.80;92.50;;;;;;4987290;28;20050;-48
2020/12/19 04:14:52;;;;;;;25.13;16.17;;;6.80;92.50;;;;;;4981192;28;20484;-52
2020/12/19 04:17:20;;;;;;;27.50;16.83;;;6.80;92.50;;;;;;4980186;28;20392;-49
2020/12/19 04:19:46;;;;;;;28.30;17.38;;;6.80;92.50;;;;;;4989377;28;20079;-51
2020/12/19 04:22:15;;;;;;;25.83;17.13;;;6.90;92.50;;;;;;4977005;28;20462;-47
2020/12/19 04:24:41;;;;;;;28.48;17.02;;;6.90;92.50;;;;;;4992381;28;20463;-47
2020/12/19 04:27:07;;;;;;;27.17;17.38;;;6.80;92.50;;;;;;4991106;28;20132;-51
2020/12/19 04:29:52;;;;;;;27.10;16.67;;;6.90;92.60;;;;;;4974144;28;20050;-52
2020/12/19 04:32:38;;;;;;;27.42;17.25;;;6.90;92.50;;;;;;5004716;28;20640;-52
2020/12/19 04:35:07;;;;;;;25.63;16.60;;;6.90;92.50;;;;;;4992430;28;20047;-49
2020/12/19 04:37:33;;;;;;;27.25;17.10;;;7.00;92.50;;;;;;4979019;28;20038;-49
2020/12/19 04:40:01;;;;;;;28.20;17.33;;;7.00;92.40;;;;;;4991888;28;20042;-47
2020/12/19 04:42:26;;;;;;;27.40;16.70;;;6.90;92.50;;;;;;4993058;28;20047;-50
2020/12/19 04:44:52;;;;;;;28.92;17.00;;;7.00;92.50;;;;;;4993482;28;20042;-52
2020/12/19 04:47:19;;;;;;;25.00;16.52;;;7.00;92.40;;;;;;4980163;28;20043;-48
2020/12/19 04:50:05;;;;;;;27.52;16.92;;;6.90;92.50;;;;;;4974405;28;20109;-49
2020/12/19 04:52:51;;;;;;;28.20;16.15;;;6.90;92.50;;;;;;4974435;28;20046;-48
2020/12/19 04:55:20;;;;;;;27.48;16.98;;;7.00;92.60;;;;;;4983364;28;20049;-50
2020/12/19 04:58:09;;;;;;;29.13;16.88;;;7.00;92.40;;;;;;4976444;28;20054;-48
2020/12/19 05:00:35;;;;;;;26.20;16.98;;;7.00;92.40;;;;;;4984446;28;20049;-49
2020/12/19 05:03:20;;;;;;;27.20;17.13;;;7.10;92.40;;;;;;4987205;28;20688;-48
2020/12/19 05:05:46;;;;;;;25.83;16.30;;;7.00;92.40;;;;;;4981225;28;20042;-52
2020/12/19 05:08:12;;;;;;;23.92;15.05;;;7.00;92.40;;;;;;4993565;28;20038;-48
2020/12/19 05:10:38;;;;;;;25.08;16.00;;;7.10;92.30;;;;;;4981737;28;20035;-51
2020/12/19 05:13:26;;;;;;;26.70;17.08;;;7.10;92.30;;;;;;4965335;28;20136;-51
2020/12/19 05:15:52;;;;;;;27.55;16.83;;;7.10;92.20;;;;;;4981204;28;20065;-53
2020/12/19 05:18:18;;;;;;;24.52;16.25;;;7.00;92.30;;;;;;4981099;28;20046;-51
2020/12/19 05:20:46;;;;;;;28.25;17.23;;;7.00;92.30;;;;;;5003470;28;20034;-50
2020/12/19 05:23:13;;;;;;;25.55;16.30;;;7.00;92.30;;;;;;4997732;28;20698;-49
2020/12/19 05:25:38;;;;;;;25.75;15.60;;;7.00;92.30;;;;;;4982203;28;20043;-48
2020/12/19 05:28:05;;;;;;;28.17;16.27;;;7.00;92.30;;;;;;4993518;28;20503;-49
2020/12/19 05:30:31;;;;;;;25.85;16.25;;;6.90;92.20;;;;;;4993544;28;20047;-47
2020/12/19 05:32:57;;;;;;;25.27;15.77;;;6.90;92.30;;;;;;4980869;28;20054;-47
2020/12/19 05:35:23;;;;;;;26.00;16.20;;;6.90;92.40;;;;;;4994052;28;20058;-47
2020/12/19 05:37:56;;;;;;;26.50;15.85;;;6.90;92.30;;;;;;4997556;28;20042;-47
2020/12/19 05:40:24;;;;;;;24.83;15.95;;;7.00;92.30;;;;;;5000350;28;20073;-48
2020/12/19 05:42:51;;;;;;;24.77;15.82;;;7.00;92.30;;;;;;4997881;28;20113;-51
2020/12/19 05:45:23;;;;;;;21.63;14.35;;;7.00;92.30;;;;;;4985539;28;20066;-47
2020/12/19 05:48:08;;;;;;;29.25;16.52;;;6.90;92.40;;;;;;4992198;28;20047;-47
2020/12/19 05:50:34;;;;;;;24.85;15.93;;;6.90;92.30;;;;;;4983110;28;20162;-49
2020/12/19 05:53:04;;;;;;;24.77;16.05;;;7.00;92.30;;;;;;4996142;28;20065;-47
2020/12/19 05:55:31;;;;;;;26.63;16.33;;;7.00;92.30;;;;;;4998448;28;20111;-50
2020/12/19 05:57:59;;;;;;;26.58;16.00;;;7.00;92.30;;;;;;4966545;28;20072;-48
2020/12/19 06:00:26;;;;;;;24.92;16.33;;;7.00;92.20;;;;;;4982108;28;20119;-49
2020/12/19 06:02:52;;;;;;;26.98;15.55;;;6.90;92.20;;;;;;4996271;28;20475;-49
2020/12/19 06:05:40;;;;;;;23.90;15.90;;;7.00;92.30;;;;;;4997412;28;20053;-49
2020/12/19 06:08:07;;;;;;;25.80;16.73;;;6.90;92.40;;;;;;4971061;28;20043;-51
2020/12/19 06:10:33;;;;;;;26.73;16.73;;;6.90;92.30;;;;;;4976330;28;20046;-48
2020/12/19 06:13:21;;;;;;;23.70;15.00;;;6.90;92.40;;;;;;4985711;28;20522;-48
2020/12/19 06:16:11;;;;;;;27.90;17.45;;;6.90;92.40;;;;;;4985417;28;20191;-48
2020/12/19 06:18:50;;;;;;;26.85;16.08;;;6.90;92.40;;;;;;4975737;28;20104;-49
2020/12/19 06:21:16;;;;;;;25.48;15.93;;;6.90;92.50;;;;;;4974695;28;20074;-49
2020/12/19 06:23:42;;;;;;;26.33;16.33;;;6.90;92.50;;;;;;4990900;28;20039;-47
2020/12/19 06:26:10;;;;;;;26.83;16.95;;;7.00;92.30;;;;;;4977696;28;20035;-48
2020/12/19 06:28:43;;;;;;;27.85;16.60;;;7.00;92.40;;;;;;4992128;28;20094;-49
2020/12/19 06:31:22;;;;;;;23.48;15.70;;;6.90;92.40;;;;;;4997175;28;20125;-48
2020/12/19 06:33:50;;;;;;;27.50;16.83;;;7.00;92.40;;;;;;4994706;28;20038;-48
2020/12/19 06:36:26;;;;;;;28.13;16.38;;;7.00;92.30;;;;;;4996447;28;20047;-48
2020/12/19 06:38:58;;;;;;;26.42;16.75;;;7.00;92.30;;;;;;4979833;28;20053;-48
2020/12/19 06:41:47;;;;;;;28.25;17.27;;;7.00;92.30;;;;;;4976676;28;20039;-48
2020/12/19 06:44:17;;;;;;;25.27;15.52;;;7.00;92.20;;;;;;4976306;28;20503;-49
2020/12/19 06:46:44;;;;;;;25.58;16.83;;;7.10;92.30;;;;;;4984410;28;20054;-51
2020/12/19 06:49:26;;;;;;;28.15;16.65;;;7.10;92.30;;;;;;4990714;28;20045;-48
2020/12/19 06:52:10;;;;;;;25.45;16.17;;;7.00;92.30;;;;;;4996049;28;20158;-50
2020/12/19 06:54:57;;;;;;;29.50;16.55;;;7.00;92.30;;;;;;4988639;28;20495;-47
2020/12/19 06:57:23;;;;;;;26.73;16.05;;;7.10;92.30;;;;;;4996831;28;20074;-48
2020/12/19 06:59:49;;;;;;;22.27;14.88;;;7.00;92.30;;;;;;4986876;28;20506;-47
2020/12/19 07:02:19;;;;;;;23.02;15.70;;;7.10;92.30;;;;;;4999560;28;20073;-53
2020/12/19 07:04:46;;;;;;;29.95;16.25;;;7.10;92.30;;;;;;4992743;28;20129;-53
2020/12/19 07:07:15;;;;;;;25.40;14.90;;;7.00;92.30;;;;;;4983118;28;20061;-51
2020/12/19 07:09:41;;;;;;;25.70;15.68;;;7.00;92.40;;;;;;4979594;28;20042;-53
2020/12/19 07:12:28;;;;;;;22.40;15.30;;;7.00;92.30;;;;;;4988069;28;20092;-54
2020/12/19 07:14:54;;;;;;;22.90;14.75;;;7.00;92.30;;;;;;4998020;28;20051;-52
2020/12/19 07:17:20;;;;;;;26.10;15.60;;;7.00;92.20;;;;;;4993207;28;20496;-54
2020/12/19 07:19:46;;;;;;;24.17;15.43;;;7.00;92.10;;;;;;4994387;28;20414;-51
2020/12/19 07:22:12;;;;;;;20.48;13.68;;;7.00;92.20;;;;;;4986918;28;20081;-54
2020/12/19 07:24:58;;;;;;;25.55;14.45;;;7.00;92.10;;;;;;4985673;28;20055;-53
2020/12/19 07:27:24;;;;;;;22.85;15.10;;;7.10;92.10;;;;;;4991517;28;20506;-52
2020/12/19 07:29:58;;;;;;;24.05;15.27;;;7.10;91.90;;;;;;4991725;28;20045;-51
2020/12/19 07:32:24;;;;;;;22.25;15.45;;;7.10;92.00;;;;;;4992707;28;20043;-51
2020/12/19 07:34:54;;;;;;;24.02;14.63;;;7.00;92.00;;;;;;4978923;28;20034;-53
2020/12/19 07:37:21;;;;;;;23.13;15.32;;;7.00;91.90;;;;;;4994197;28;20098;-53
2020/12/19 07:40:07;;;;;;;24.02;16.15;;;7.00;92.10;;;;;;4981176;28;20050;-52
2020/12/19 07:42:33;;;;;;;24.60;14.88;;;6.90;92.00;;;;;;4980726;28;20094;-53
2020/12/19 07:44:59;;;;;;;23.90;15.27;;;7.00;91.90;;;;;;4983744;28;20097;-50
2020/12/19 07:47:24;;;;;;;24.38;15.05;;;7.00;91.90;;;;;;4993713;28;20053;-52
2020/12/19 07:49:52;;;;;;;21.48;15.70;;;7.00;91.90;;;;;;4991868;28;20038;-52
2020/12/19 07:52:38;;;;;;;22.52;14.38;;;7.00;91.80;;;;;;4976936;28;20038;-48
2020/12/19 07:55:05;;;;;;;23.85;14.57;;;7.00;91.80;;;;;;4975581;28;20459;-51
2020/12/19 07:57:34;;;;;;;23.23;14.85;;;7.00;91.90;;;;;;4977452;28;20125;-51
2020/12/19 08:00:03;;;;;;;22.63;15.45;;;7.00;91.90;;;;;;4974720;28;20073;-49
2020/12/19 08:02:50;;;;;;;21.63;15.00;;;7.00;91.90;;;;;;4972292;28;20500;-50
2020/12/19 08:05:16;;;;;;;23.35;14.57;;;7.00;91.90;;;;;;4983139;28;20042;-52
2020/12/19 08:08:02;;;;;;;22.25;14.90;;;7.00;91.80;;;;;;4988738;28;20574;-52
2020/12/19 08:10:27;;;;;;;25.80;15.10;;;7.00;91.90;;;;;;4983072;28;20042;-50
2020/12/19 08:13:15;;;;;;;23.05;14.98;;;7.00;92.10;;;;;;4990348;28;20537;-52
2020/12/19 08:15:41;;;;;;;22.15;15.10;;;7.00;91.90;;;;;;4994020;28;20089;-49
2020/12/19 08:18:08;;;;;;;26.27;15.48;;;7.00;91.90;;;;;;4994432;28;20050;-52
2020/12/19 08:20:37;;;;;;;24.48;14.98;;;7.10;91.80;;;;;;4994906;28;20042;-50
2020/12/19 08:23:24;;;;;;;25.15;14.52;;;7.10;91.90;;;;;;4980191;28;20526;-49
2020/12/19 08:25:51;;;;;;;19.95;13.48;;;7.10;91.90;;;;;;4989544;28;20456;-49
2020/12/19 08:28:21;;;;;;;22.17;14.82;;;7.10;91.80;;;;;;4987763;28;20096;-52
2020/12/19 08:30:48;;;;;;;21.25;14.30;;;7.20;91.80;;;;;;4987216;28;20050;-51
2020/12/19 08:33:37;;;;;;;22.25;14.40;;;7.20;91.80;;;;;;4972268;28;20065;-52
2020/12/19 08:36:03;;;;;;;26.08;15.05;;;7.20;91.70;;;;;;4973730;28;20043;-49
2020/12/19 08:38:49;;;;;;;22.60;14.70;;;7.20;91.70;;;;;;4974629;28;20042;-48
2020/12/19 08:41:19;;;;;;;22.33;14.43;;;7.20;91.80;;;;;;4983617;28;20049;-52
2020/12/19 08:43:45;;;;;;;22.77;13.65;;;7.30;91.80;;;;;;4973375;28;20078;-50
2020/12/19 08:46:13;;;;;;;23.05;14.38;;;7.40;91.70;;;;;;4992333;28;20082;-50
2020/12/19 08:48:42;;;;;;;23.02;13.60;;;7.30;91.70;;;;;;4989982;28;20157;-52
2020/12/19 08:51:09;;;;;;;20.35;13.50;;;7.30;91.70;;;;;;4973817;28;20041;-52
2020/12/19 08:54:10;;;;;;;21.95;14.63;;;7.30;91.70;;;;;;4971433;28;20050;-52
2020/12/19 08:56:56;;;;;;;22.30;13.80;;;7.30;91.80;;;;;;4982368;28;20070;-49
2020/12/19 08:59:27;;;;;;;22.70;14.85;;;7.30;91.80;;;;;;4976893;28;20069;-49
2020/12/19 09:01:54;;;;;;;20.48;13.88;;;7.40;91.80;;;;;;4981483;28;20418;-50
2020/12/19 09:04:20;;;;;;;20.55;14.15;;;7.40;91.70;;;;;;4989726;28;20125;-50
2020/12/19 09:06:51;;;;;;;23.50;13.90;;;7.50;91.80;;;;;;4988424;28;20113;-48
2020/12/19 09:09:35;;;;;;;24.02;15.18;;;7.50;91.80;;;;;;4988134;28;20113;-48
2020/12/19 09:12:22;;;;;;;21.35;13.48;;;7.50;91.60;;;;;;4987850;28;20589;-48
2020/12/19 09:14:48;;;;;;;23.75;14.02;;;7.50;91.80;;;;;;4975338;28;20058;-48
2020/12/19 09:17:30;;;;;;;22.05;15.38;;;7.50;91.70;;;;;;4991596;28;20137;-49
2020/12/19 09:20:05;;;;;;;21.77;14.70;;;7.50;91.80;;;;;;4989869;28;20053;-52
2020/12/19 09:22:33;;;;;;;21.55;14.35;;;7.60;91.70;;;;;;4971397;28;20051;-50
2020/12/19 09:24:59;;;;;;;19.45;13.45;;;7.70;91.60;;;;;;4973187;28;20053;-48
2020/12/19 09:27:44;;;;;;;23.40;14.82;;;7.60;91.60;;;;;;4991390;28;20050;-49
2020/12/19 09:30:10;;;;;;;25.38;14.85;;;7.70;91.60;;;;;;4991625;28;20053;-51
2020/12/19 09:32:59;;;;;;;20.73;14.38;;;7.70;91.60;;;;;;4976858;28;20411;-52
2020/12/19 09:35:45;;;;;;;23.48;14.15;;;7.70;91.60;;;;;;4971705;28;20047;-48
2020/12/19 09:38:11;;;;;;;22.33;13.95;;;7.90;91.60;;;;;;4972748;28;20510;-51
2020/12/19 09:40:37;;;;;;;19.10;13.00;;;7.90;91.50;;;;;;4976011;28;20114;-48
2020/12/19 09:43:23;;;;;;;20.27;14.07;;;8.00;91.40;;;;;;4990184;28;20463;-48
2020/12/19 09:45:49;;;;;;;22.40;14.32;;;8.00;91.50;;;;;;4991439;28;20042;-49
2020/12/19 09:48:15;;;;;;;21.55;13.23;;;8.00;91.50;;;;;;4989697;28;20065;-49
2020/12/19 09:51:01;;;;;;;21.02;13.27;;;8.10;91.60;;;;;;4976643;28;20046;-49
2020/12/19 09:53:27;;;;;;;21.70;14.25;;;8.10;91.50;;;;;;4988956;28;20056;-50
2020/12/19 09:56:13;;;;;;;23.58;14.20;;;8.20;91.40;;;;;;4987867;28;20046;-49
2020/12/19 09:58:59;;;;;;;21.23;14.00;;;8.20;91.50;;;;;;4979831;28;20137;-48
2020/12/19 10:01:44;;;;;;;17.70;12.88;;;8.30;91.40;;;;;;4983039;28;20129;-51
2020/12/19 10:04:10;;;;;;;20.85;13.65;;;8.40;91.30;;;;;;4983015;28;20168;-51
2020/12/19 10:06:55;;;;;;;20.55;13.98;;;8.50;91.20;;;;;;4977470;28;20050;-48
2020/12/19 10:09:21;;;;;;;22.67;13.68;;;8.50;91.30;;;;;;4990225;28;20367;-49
2020/12/19 10:11:46;;;;;;;22.20;13.90;;;8.50;91.20;;;;;;4976858;28;20046;-50
2020/12/19 10:14:12;;;;;;;25.33;13.85;;;8.60;91.20;;;;;;4985079;28;20042;-51
2020/12/19 10:16:39;;;;;;;20.98;14.02;;;8.70;91.20;;;;;;4993368;28;20094;-48
2020/12/19 10:19:04;;;;;;;21.58;13.90;;;8.70;91.40;;;;;;4994585;28;20469;-51
2020/12/19 10:21:30;;;;;;;21.98;13.43;;;8.70;91.30;;;;;;4981084;28;20057;-51
2020/12/19 10:23:56;;;;;;;21.08;14.25;;;8.80;91.20;;;;;;4988158;28;20443;-51
2020/12/19 10:26:22;;;;;;;18.90;12.88;;;8.90;91.20;;;;;;4987611;28;20046;-49
2020/12/19 10:28:47;;;;;;;20.35;13.80;;;9.00;91.00;;;;;;4994443;28;20049;-52
2020/12/19 10:31:13;;;;;;;20.58;13.70;;;9.10;90.90;;;;;;4993242;28;20042;-53
2020/12/19 10:33:39;;;;;;;22.13;13.88;;;9.00;90.90;;;;;;4990387;28;20047;-50
2020/12/19 10:36:25;;;;;;;20.67;14.10;;;9.10;90.90;;;;;;4986701;28;20054;-48
2020/12/19 10:38:51;;;;;;;21.88;13.80;;;9.20;90.90;;;;;;4994430;28;20179;-52
2020/12/19 10:41:18;;;;;;;22.33;13.40;;;9.30;90.80;;;;;;4994741;28;20046;-51
2020/12/19 10:43:43;;;;;;;21.17;13.95;;;9.30;90.70;;;;;;4993820;28;20110;-51
2020/12/19 10:46:09;;;;;;;22.08;13.65;;;9.40;90.80;;;;;;4994646;28;20058;-52
2020/12/19 10:48:55;;;;;;;21.10;13.23;;;9.50;90.70;;;;;;4987671;28;20062;-51
2020/12/19 10:51:28;;;;;;;19.35;13.05;;;9.50;90.50;;;;;;4983861;28;20384;-51
2020/12/19 10:53:58;;;;;;;22.77;14.23;;;9.60;90.40;;;;;;4974878;28;20043;-52
2020/12/19 10:56:24;;;;;;;22.35;13.70;;;9.60;90.40;;;;;;4986776;28;20038;-52
2020/12/19 10:58:50;;;;;;;19.35;13.15;;;9.70;90.30;;;;;;4983663;28;20038;-53
2020/12/19 11:01:36;;;;;;;21.35;13.52;;;9.80;90.20;;;;;;4981277;28;20038;-55
2020/12/19 11:04:02;;;;;;;21.17;13.63;;;9.80;90.20;;;;;;5000361;28;20050;-53
2020/12/19 11:06:29;;;;;;;21.25;13.95;;;9.90;90.30;;;;;;4983973;28;20038;-55
2020/12/19 11:08:56;;;;;;;21.50;13.82;;;9.90;90.20;;;;;;4985644;28;20394;-53
2020/12/19 11:11:22;;;;;;;20.92;13.63;;;9.90;90.20;;;;;;5008777;28;20054;-50
2020/12/19 11:14:08;;;;;;;18.42;13.27;;;10.00;90.10;;;;;;4979122;28;20214;-52
2020/12/19 11:16:36;;;;;;;18.65;11.95;;;10.10;89.80;;;;;;4976064;28;20072;-53
2020/12/19 11:19:02;;;;;;;19.95;13.23;;;10.20;89.70;;;;;;4991307;28;20109;-52
2020/12/19 11:21:48;;;;;;;20.88;13.20;;;10.20;89.60;;;;;;4992552;28;20415;-50
2020/12/19 11:24:14;;;;;;;16.15;12.20;;;10.20;89.70;;;;;;4983189;28;20058;-48
2020/12/19 11:26:41;;;;;;;22.05;13.88;;;10.30;89.50;;;;;;4990069;28;20049;-50
2020/12/19 11:29:13;;;;;;;19.00;12.95;;;10.40;88.80;;;;;;4978006;28;20039;-53
2020/12/19 11:31:38;;;;;;;19.63;12.48;;;10.40;89.00;;;;;;4981601;28;20049;-51
2020/12/19 11:34:24;;;;;;;20.15;13.25;;;10.40;89.00;;;;;;4978004;28;20531;-50
2020/12/19 11:36:49;;;;;;;16.33;11.23;;;10.40;89.10;;;;;;4984398;28;20133;-50
2020/12/19 11:39:35;;;;;;;20.02;11.82;;;10.50;88.60;;;;;;4990815;28;20045;-54
2020/12/19 11:42:03;;;;;;;18.27;11.80;;;10.50;88.70;;;;;;4992913;28;20057;-51
2020/12/19 11:44:48;;;;;;;22.50;12.70;;;10.50;88.50;;;;;;4992353;28;20438;-52
2020/12/19 11:47:15;;;;;;;18.45;11.88;;;10.50;88.50;;;;;;4983017;28;20552;-52
2020/12/19 11:49:42;;;;;;;16.65;11.75;;;10.60;88.50;;;;;;4984761;28;20057;-52
2020/12/19 11:52:09;;;;;;;18.70;11.55;;;10.60;88.60;;;;;;4989422;28;20042;-52
2020/12/19 11:54:36;;;;;;;18.55;11.43;;;10.60;88.30;;;;;;4978397;28;20282;-54
2020/12/19 11:57:03;;;;;;;16.27;10.70;;;10.70;88.40;;;;;;4986619;28;20053;-52
2020/12/19 11:59:29;;;;;;;19.25;11.80;;;10.70;88.20;;;;;;4993163;28;20561;-54
2020/12/19 12:01:58;;;;;;;16.27;11.07;;;10.70;88.20;;;;;;4980731;28;20042;-52
2020/12/19 12:04:45;;;;;;;17.38;11.55;;;10.80;87.60;;;;;;4988229;28;20414;-54
2020/12/19 12:07:10;;;;;;;17.55;11.80;;;10.80;87.60;;;;;;4989457;28;20042;-54
2020/12/19 12:09:56;;;;;;;14.30;10.30;;;10.80;87.90;;;;;;4986831;28;20070;-54
2020/12/19 12:12:41;;;;;;;16.17;11.23;;;10.90;87.50;;;;;;4981494;28;20428;-51
2020/12/19 12:15:07;;;;;;;23.02;11.32;;;10.90;87.50;;;;;;4992759;28;20046;-54
2020/12/19 12:17:33;;;;;;;15.60;11.38;;;10.90;87.20;;;;;;4991429;28;20479;-53
2020/12/19 12:19:58;;;;;;;19.10;11.43;;;10.90;87.20;;;;;;4980524;28;20522;-54
2020/12/19 12:22:25;;;;;;;19.80;10.75;;;10.90;87.20;;;;;;4992055;28;20061;-53
2020/12/19 12:24:50;;;;;;;15.65;9.90;;;10.90;87.10;;;;;;4992623;28;20042;-54
2020/12/19 12:27:36;;;;;;;18.35;11.38;;;10.90;87.30;;;;;;4991779;28;20046;-51
2020/12/19 12:30:04;;;;;;;15.13;10.30;;;10.90;86.90;;;;;;4986865;28;20082;-54
2020/12/19 12:32:30;;;;;;;17.65;11.30;;;10.90;87.00;;;;;;4984445;28;20069;-54
2020/12/19 12:35:15;;;;;;;19.17;11.98;;;10.80;87.60;;;;;;4972588;28;20081;-52
2020/12/19 12:37:42;;;;;;;16.13;9.98;;;10.80;87.50;;;;;;4973375;28;20082;-54
2020/12/19 12:40:08;;;;;;;13.10;9.77;;;10.90;87.30;;;;;;4977795;28;20046;-51
2020/12/19 12:42:54;;;;;;;15.13;9.68;;;10.90;87.30;;;;;;4977318;28;20050;-52
2020/12/19 12:45:40;;;;;;;14.80;9.48;;;10.90;86.70;;;;;;4979960;28;20045;-51
2020/12/19 12:48:06;;;;;;;16.80;9.88;;;11.00;86.60;;;;;;4978870;28;20050;-53
2020/12/19 12:50:33;;;;;;;14.43;9.57;;;11.00;86.50;;;;;;4979451;28;20073;-50
2020/12/19 12:52:59;;;;;;;13.80;9.05;;;11.00;86.70;;;;;;4975791;28;20070;-51
2020/12/19 12:55:45;;;;;;;12.90;8.48;;;11.00;86.40;;;;;;4972054;28;20042;-51
2020/12/19 12:58:12;;;;;;;12.48;8.75;;;11.00;86.40;;;;;;4979188;28;20047;-52
2020/12/19 13:01:00;;;;;;;14.00;8.68;;;11.10;85.30;;;;;;4979903;28;20086;-49